Time;durP1;ratioP1;P1;durP2;ratioP2;P2;SDS_P1;SDS_P2;PMS_P1;PMS_P2;Temp;Humidity;BMP_temperature;BMP_pressure;BME280_temperature;BME280_humidity;BME280_pressure;Samples;Min_cycle;Max_cycle;Signal;HPM_P1;HPM_P2
2022/09/08 00:00:52;;;;;;;1.00;0.77;;;18.00;99.90;;;;;;5077249;28;20445;-81
2022/09/08 00:03:22;;;;;;;0.70;0.70;;;18.00;99.90;;;;;;5076791;28;20504;-81
2022/09/08 00:05:52;;;;;;;1.27;0.80;;;18.00;99.90;;;;;;5076797;28;20448;-81
2022/09/08 00:08:20;;;;;;;1.13;0.70;;;18.00;99.90;;;;;;5076853;28;20770;-81
2022/09/08 00:10:49;;;;;;;0.70;0.70;;;18.00;99.90;;;;;;5077031;28;20484;-81
2022/09/08 00:13:18;;;;;;;4.10;1.33;;;18.00;99.90;;;;;;5076861;28;20513;-81
2022/09/08 00:15:45;;;;;;;0.80;0.80;;;18.00;99.90;;;;;;5076611;28;20445;-81
2022/09/08 00:18:12;;;;;;;0.70;0.70;;;18.10;99.90;;;;;;5076643;28;20444;-81
2022/09/08 00:20:39;;;;;;;0.87;0.80;;;18.10;99.90;;;;;;5076791;28;20453;-81
2022/09/08 00:23:06;;;;;;;1.37;0.60;;;18.00;99.90;;;;;;5076343;28;20994;-80
2022/09/08 00:25:33;;;;;;;1.33;0.90;;;18.00;99.90;;;;;;5076714;28;20453;-80
2022/09/08 00:28:00;;;;;;;2.87;0.77;;;18.00;99.90;;;;;;5076400;28;20476;-80
2022/09/08 00:30:28;;;;;;;1.00;0.60;;;18.00;99.90;;;;;;5076780;28;20485;-80
2022/09/08 00:32:54;;;;;;;1.03;0.60;;;17.90;99.90;;;;;;5076764;28;20475;-80
2022/09/08 00:35:21;;;;;;;2.77;0.97;;;17.90;99.90;;;;;;5076690;28;20445;-80
2022/09/08 00:37:49;;;;;;;2.10;0.80;;;18.00;99.90;;;;;;5076435;28;20448;-80
2022/09/08 00:40:17;;;;;;;0.70;0.70;;;18.00;99.90;;;;;;5076407;28;20449;-80
2022/09/08 00:42:43;;;;;;;0.93;0.70;;;18.00;99.90;;;;;;5076484;28;20786;-80
2022/09/08 00:45:12;;;;;;;0.50;0.50;;;18.00;99.90;;;;;;5076099;28;20437;-80
2022/09/08 00:47:46;;;;;;;1.37;0.83;;;17.90;99.90;;;;;;5076168;28;20448;-80
2022/09/08 00:50:17;;;;;;;0.40;0.40;;;17.90;99.90;;;;;;5075913;28;21056;-80
2022/09/08 00:52:47;;;;;;;0.60;0.57;;;17.80;99.90;;;;;;5075877;28;20464;-80
2022/09/08 00:55:15;;;;;;;0.60;0.50;;;17.90;99.90;;;;;;5076153;28;20457;-80
2022/09/08 00:57:42;;;;;;;0.83;0.70;;;17.90;99.90;;;;;;5075899;28;20444;-80
2022/09/08 01:00:13;;;;;;;0.60;0.60;;;17.90;99.90;;;;;;5075837;28;20433;-80
2022/09/08 01:02:42;;;;;;;0.50;0.50;;;17.90;99.90;;;;;;5075982;28;20522;-79
2022/09/08 01:05:11;;;;;;;2.43;0.67;;;17.90;99.90;;;;;;5074653;28;20538;-80
2022/09/08 01:13:31;;;;;;;0.60;0.57;;;17.90;99.90;;;;;;5075819;28;20456;-80
2022/09/08 01:15:58;;;;;;;0.80;0.80;;;17.90;99.90;;;;;;5075500;28;20831;-80
2022/09/08 01:18:26;;;;;;;1.03;0.77;;;17.90;99.90;;;;;;5075760;28;20444;-81
2022/09/08 01:20:59;;;;;;;0.70;0.60;;;17.90;99.90;;;;;;5075708;28;20437;-81
2022/09/08 01:24:03;;;;;;;0.50;0.50;;;17.90;99.90;;;;;;5075785;28;20472;-81
2022/09/08 01:26:46;;;;;;;0.83;0.43;;;17.90;99.90;;;;;;5075172;28;20480;-81
2022/09/08 01:29:17;;;;;;;0.73;0.70;;;17.80;99.90;;;;;;5075514;28;20494;-81
2022/09/08 01:31:45;;;;;;;0.80;0.50;;;17.90;99.90;;;;;;5075467;28;20424;-81
2022/09/08 01:34:12;;;;;;;0.40;0.40;;;17.90;99.90;;;;;;5075489;28;20441;-81
2022/09/08 01:36:39;;;;;;;1.17;0.57;;;17.90;99.90;;;;;;5075664;28;20441;-81
2022/09/08 01:39:06;;;;;;;1.03;0.60;;;17.90;99.90;;;;;;5075337;28;20510;-81
2022/09/08 01:41:33;;;;;;;1.47;0.60;;;17.90;99.90;;;;;;5075038;28;20963;-80
2022/09/08 01:43:59;;;;;;;0.50;0.50;;;17.90;99.90;;;;;;5075239;28;20533;-80
2022/09/08 01:46:29;;;;;;;0.63;0.60;;;17.90;99.90;;;;;;5074890;28;20948;-81
2022/09/08 01:48:56;;;;;;;0.40;0.40;;;17.80;99.90;;;;;;5075170;28;20477;-81
2022/09/08 01:51:23;;;;;;;0.60;0.60;;;17.80;99.90;;;;;;5074659;28;20837;-81
2022/09/08 01:53:49;;;;;;;0.60;0.50;;;17.70;99.90;;;;;;5075282;28;20472;-81
2022/09/08 01:56:16;;;;;;;0.50;0.40;;;17.60;99.90;;;;;;5074709;28;20448;-78
2022/09/08 01:58:43;;;;;;;0.40;0.40;;;17.60;99.90;;;;;;5075003;28;20524;-79
2022/09/08 02:01:10;;;;;;;0.30;0.30;;;17.60;99.90;;;;;;5074583;28;20955;-78
2022/09/08 02:03:38;;;;;;;0.40;0.37;;;17.40;99.90;;;;;;5074788;28;20480;-79
2022/09/08 02:06:05;;;;;;;2.30;1.27;;;17.40;99.90;;;;;;5074583;28;20802;-79
2022/09/08 02:08:31;;;;;;;0.40;0.40;;;17.30;99.90;;;;;;5074458;28;20448;-79
2022/09/08 02:10:59;;;;;;;0.50;0.50;;;17.20;99.90;;;;;;5074645;28;20473;-80
2022/09/08 02:13:27;;;;;;;0.40;0.40;;;17.10;99.90;;;;;;5074586;28;20518;-79
2022/09/08 02:15:58;;;;;;;0.50;0.40;;;17.10;99.90;;;;;;5074480;28;20445;-79
2022/09/08 02:18:26;;;;;;;0.73;0.50;;;17.10;99.90;;;;;;5074298;28;20909;-80
2022/09/08 02:21:03;;;;;;;0.47;0.37;;;17.00;99.90;;;;;;5074532;28;20539;-79
2022/09/08 02:23:30;;;;;;;0.40;0.40;;;17.00;99.90;;;;;;5074420;28;20449;-79
2022/09/08 02:25:56;;;;;;;0.40;0.40;;;17.00;99.90;;;;;;5074417;28;20457;-80
2022/09/08 02:28:23;;;;;;;0.40;0.40;;;17.00;99.90;;;;;;5074651;28;20433;-80
2022/09/08 02:30:50;;;;;;;0.57;0.50;;;16.90;99.90;;;;;;5074246;28;20485;-80
2022/09/08 02:33:16;;;;;;;0.60;0.30;;;16.90;99.90;;;;;;5074197;28;20473;-80
2022/09/08 02:35:43;;;;;;;0.47;0.30;;;16.90;99.90;;;;;;5074362;28;20456;-80
2022/09/08 02:38:11;;;;;;;0.40;0.40;;;16.90;99.90;;;;;;5074136;28;20474;-79
2022/09/08 02:40:38;;;;;;;0.40;0.40;;;16.80;99.90;;;;;;5074050;28;20932;-80
2022/09/08 02:43:05;;;;;;;0.30;0.30;;;16.70;99.90;;;;;;5073740;28;21007;-80
2022/09/08 02:45:32;;;;;;;0.70;0.40;;;16.70;99.90;;;;;;5074065;28;20503;-79
2022/09/08 02:47:59;;;;;;;0.30;0.30;;;16.70;99.90;;;;;;5073681;28;20825;-81
2022/09/08 02:50:25;;;;;;;0.70;0.40;;;16.60;99.90;;;;;;5073699;28;21053;-80
2022/09/08 02:52:52;;;;;;;0.40;0.40;;;16.70;99.90;;;;;;5073894;28;20464;-81
2022/09/08 02:55:23;;;;;;;0.30;0.30;;;16.70;99.90;;;;;;5073788;28;20445;-81
2022/09/08 02:57:50;;;;;;;0.30;0.30;;;16.70;99.90;;;;;;5073870;28;20831;-81
2022/09/08 03:00:17;;;;;;;0.33;0.30;;;16.70;99.90;;;;;;5073895;28;20944;-80
2022/09/08 03:02:46;;;;;;;0.40;0.40;;;16.70;99.90;;;;;;5073967;28;20464;-81
2022/09/08 03:05:12;;;;;;;0.97;0.50;;;16.70;99.90;;;;;;5073668;28;20879;-81
2022/09/08 03:07:40;;;;;;;0.40;0.40;;;16.70;99.90;;;;;;5073713;28;20448;-81
2022/09/08 03:10:08;;;;;;;0.60;0.57;;;16.70;99.90;;;;;;5073383;28;21002;-81
2022/09/08 03:12:36;;;;;;;0.40;0.30;;;16.70;99.90;;;;;;5073329;28;20825;-82
2022/09/08 03:15:03;;;;;;;0.40;0.30;;;16.60;99.90;;;;;;5073613;28;20448;-81
2022/09/08 03:17:29;;;;;;;0.50;0.30;;;16.60;99.90;;;;;;5073232;28;20825;-81
2022/09/08 03:19:56;;;;;;;0.87;0.40;;;16.60;99.90;;;;;;5073837;28;20441;-81
2022/09/08 03:22:23;;;;;;;3.03;0.43;;;16.60;99.90;;;;;;5073168;28;20990;-82
2022/09/08 03:24:49;;;;;;;0.60;0.30;;;16.60;99.90;;;;;;5073150;28;20453;-81
2022/09/08 03:27:16;;;;;;;1.00;0.40;;;16.60;99.90;;;;;;5072731;28;20480;-81
2022/09/08 03:29:44;;;;;;;0.63;0.40;;;16.60;99.90;;;;;;5073453;28;20437;-81
2022/09/08 03:32:11;;;;;;;0.43;0.37;;;16.50;99.90;;;;;;5073294;28;20500;-78
2022/09/08 03:34:38;;;;;;;0.30;0.30;;;16.60;99.90;;;;;;5073415;28;20453;-79
2022/09/08 03:37:05;;;;;;;0.40;0.30;;;16.60;99.90;;;;;;5073795;28;20457;-79
2022/09/08 03:39:31;;;;;;;0.80;0.40;;;16.50;99.90;;;;;;5073332;28;20449;-79
2022/09/08 03:41:58;;;;;;;0.40;0.30;;;16.50;99.90;;;;;;5073469;28;20500;-79
2022/09/08 03:44:25;;;;;;;2.30;0.30;;;16.50;99.90;;;;;;5073164;28;20449;-79
2022/09/08 03:46:53;;;;;;;0.30;0.20;;;16.50;99.90;;;;;;5073260;28;20549;-79
2022/09/08 03:49:20;;;;;;;0.70;0.40;;;16.50;99.90;;;;;;5073228;28;20457;-79
2022/09/08 03:51:47;;;;;;;0.50;0.50;;;16.50;99.90;;;;;;5073078;28;20480;-79
2022/09/08 03:56:58;;;;;;;0.30;0.20;;;16.40;99.90;;;;;;5073270;28;20843;-79
2022/09/08 03:59:25;;;;;;;0.37;0.33;;;16.40;99.90;;;;;;5073083;28;20448;-79
2022/09/08 04:01:54;;;;;;;0.40;0.30;;;16.40;99.90;;;;;;5072964;28;20770;-79
2022/09/08 04:04:22;;;;;;;0.40;0.40;;;16.40;99.90;;;;;;5073306;28;20445;-79
2022/09/08 04:06:49;;;;;;;0.40;0.30;;;16.40;99.90;;;;;;5073070;28;20445;-81
2022/09/08 04:09:16;;;;;;;1.60;0.40;;;16.30;99.90;;;;;;5072997;28;20445;-80
2022/09/08 04:11:43;;;;;;;0.30;0.30;;;16.30;99.90;;;;;;5073402;28;20485;-80
2022/09/08 04:14:09;;;;;;;0.40;0.37;;;16.30;99.90;;;;;;5072740;28;20437;-80
2022/09/08 04:16:36;;;;;;;0.30;0.30;;;16.20;99.90;;;;;;5072755;28;20433;-80
2022/09/08 04:19:04;;;;;;;0.30;0.30;;;16.20;99.90;;;;;;5072961;28;20498;-80
2022/09/08 04:21:31;;;;;;;0.50;0.30;;;16.20;99.90;;;;;;5072918;28;20452;-80
2022/09/08 04:23:59;;;;;;;0.40;0.30;;;16.20;99.90;;;;;;5072814;28;20480;-80
2022/09/08 04:26:27;;;;;;;0.40;0.30;;;16.30;99.90;;;;;;5072398;28;20976;-80
2022/09/08 04:28:53;;;;;;;0.63;0.50;;;16.30;99.90;;;;;;5072881;28;20816;-80
2022/09/08 04:31:20;;;;;;;0.60;0.40;;;16.20;99.90;;;;;;5072743;28;20472;-80
2022/09/08 04:33:47;;;;;;;0.40;0.30;;;16.20;99.90;;;;;;5072772;28;20469;-80
2022/09/08 04:36:18;;;;;;;0.40;0.30;;;16.20;99.90;;;;;;5072936;28;20449;-81
2022/09/08 04:38:45;;;;;;;0.53;0.30;;;16.10;99.90;;;;;;5072550;28;20421;-81
2022/09/08 04:41:15;;;;;;;0.30;0.30;;;16.10;99.90;;;;;;5076441;28;20437;-80
2022/09/08 04:43:42;;;;;;;0.50;0.50;;;16.10;99.90;;;;;;5076437;28;20452;-80
2022/09/08 04:46:11;;;;;;;0.30;0.20;;;16.10;99.90;;;;;;5076341;28;20448;-80
2022/09/08 04:48:40;;;;;;;0.30;0.30;;;16.10;99.90;;;;;;5076002;28;20453;-80
2022/09/08 04:51:09;;;;;;;0.33;0.27;;;16.10;99.90;;;;;;5075975;28;20480;-81
2022/09/08 04:53:37;;;;;;;0.63;0.40;;;16.00;99.90;;;;;;5076169;28;20472;-80
2022/09/08 04:56:05;;;;;;;0.43;0.30;;;16.00;99.90;;;;;;5076167;28;20456;-80
2022/09/08 04:58:31;;;;;;;0.40;0.30;;;16.00;99.90;;;;;;5076116;28;20448;-80
2022/09/08 05:01:04;;;;;;;0.30;0.20;;;16.00;99.90;;;;;;5076297;28;20437;-80
2022/09/08 05:03:31;;;;;;;3.17;0.50;;;16.00;99.90;;;;;;5075856;28;20984;-80
2022/09/08 05:06:02;;;;;;;0.50;0.30;;;16.00;99.90;;;;;;5075988;28;20459;-80
2022/09/08 05:08:29;;;;;;;0.40;0.40;;;16.00;99.90;;;;;;5075974;28;20433;-80
2022/09/08 05:10:57;;;;;;;0.60;0.40;;;16.00;99.90;;;;;;5075856;28;20484;-80
2022/09/08 05:13:24;;;;;;;0.30;0.30;;;16.00;99.90;;;;;;5075604;28;20456;-80
2022/09/08 05:15:50;;;;;;;0.40;0.30;;;16.00;99.90;;;;;;5076047;28;20457;-80
2022/09/08 05:18:17;;;;;;;0.40;0.40;;;16.10;99.90;;;;;;5075510;28;20947;-80
2022/09/08 05:20:44;;;;;;;0.40;0.30;;;16.10;99.90;;;;;;5075771;28;20452;-80
2022/09/08 05:23:11;;;;;;;0.40;0.40;;;16.10;99.90;;;;;;5075619;28;20470;-79
2022/09/08 05:25:37;;;;;;;0.30;0.30;;;16.10;99.90;;;;;;5075781;28;20472;-79
2022/09/08 05:28:05;;;;;;;0.50;0.30;;;16.10;99.90;;;;;;5075415;28;20487;-79
2022/09/08 05:30:32;;;;;;;0.37;0.30;;;16.00;99.90;;;;;;5075477;28;20523;-79
2022/09/08 05:32:59;;;;;;;0.60;0.60;;;16.00;99.90;;;;;;5075088;28;21006;-80
2022/09/08 05:35:25;;;;;;;0.40;0.30;;;16.00;99.90;;;;;;5075508;28;20472;-80
2022/09/08 05:37:52;;;;;;;0.30;0.30;;;16.10;99.90;;;;;;5075430;28;20452;-80
2022/09/08 05:40:19;;;;;;;0.40;0.30;;;16.10;99.90;;;;;;5075037;28;20963;-80
2022/09/08 05:42:46;;;;;;;0.40;0.30;;;16.10;99.90;;;;;;5075584;28;20457;-80
2022/09/08 05:45:14;;;;;;;0.30;0.30;;;16.10;99.90;;;;;;5075286;28;20547;-80
2022/09/08 05:47:41;;;;;;;0.40;0.40;;;16.10;99.90;;;;;;5074972;28;20444;-80
2022/09/08 05:50:08;;;;;;;0.40;0.40;;;16.20;99.90;;;;;;5074591;28;20456;-79
2022/09/08 05:52:35;;;;;;;0.30;0.30;;;16.10;99.90;;;;;;5074740;28;20484;-80
2022/09/08 05:55:01;;;;;;;0.30;0.30;;;16.10;99.90;;;;;;5075036;28;20456;-80
2022/09/08 05:57:28;;;;;;;0.30;0.30;;;16.10;99.90;;;;;;5074988;28;20441;-80
2022/09/08 05:59:55;;;;;;;0.30;0.30;;;16.10;99.90;;;;;;5074915;28;21086;-80
2022/09/08 06:02:23;;;;;;;0.30;0.30;;;16.10;99.90;;;;;;5074776;28;20476;-80
2022/09/08 06:04:50;;;;;;;0.90;0.30;;;16.00;99.90;;;;;;5074634;28;20943;-80
2022/09/08 06:07:16;;;;;;;0.30;0.20;;;15.90;99.90;;;;;;5074847;28;20449;-80
2022/09/08 06:09:43;;;;;;;0.30;0.30;;;15.80;99.90;;;;;;5074763;28;20454;-80
2022/09/08 06:12:10;;;;;;;1.50;0.30;;;15.80;99.90;;;;;;5074260;28;20987;-80
2022/09/08 06:14:36;;;;;;;0.30;0.20;;;15.80;99.90;;;;;;5074668;28;20453;-80
2022/09/08 06:17:03;;;;;;;0.30;0.20;;;15.70;99.90;;;;;;5074639;28;20441;-79
2022/09/08 06:19:31;;;;;;;0.40;0.40;;;15.60;99.90;;;;;;5074565;28;20457;-79
2022/09/08 06:21:58;;;;;;;0.40;0.30;;;15.60;99.90;;;;;;5074426;28;20445;-79
2022/09/08 06:24:25;;;;;;;0.30;0.30;;;15.60;99.90;;;;;;5074146;28;20932;-79
2022/09/08 06:27:09;;;;;;;0.30;0.30;;;15.50;99.90;;;;;;5074088;28;20488;-79
2022/09/08 06:29:58;;;;;;;3.37;0.40;;;15.50;99.90;;;;;;5074426;28;20442;-79
2022/09/08 06:32:29;;;;;;;0.30;0.30;;;15.50;99.90;;;;;;5073973;28;20980;-79
2022/09/08 06:35:04;;;;;;;2.40;0.30;;;15.40;99.90;;;;;;5074110;28;20419;-79
2022/09/08 06:37:36;;;;;;;0.33;0.30;;;15.40;99.90;;;;;;5074222;28;20535;-79
2022/09/08 06:40:10;;;;;;;0.30;0.30;;;15.40;99.90;;;;;;5074218;28;20500;-79
2022/09/08 06:42:44;;;;;;;0.30;0.30;;;15.40;99.90;;;;;;5073749;28;20524;-79
2022/09/08 06:45:19;;;;;;;0.30;0.30;;;15.40;99.90;;;;;;5073800;28;20900;-79
2022/09/08 06:47:52;;;;;;;0.37;0.27;;;15.40;99.90;;;;;;5073736;28;20435;-79
2022/09/08 06:50:21;;;;;;;0.30;0.30;;;15.40;99.90;;;;;;5073993;28;20433;-79
2022/09/08 06:52:50;;;;;;;0.40;0.33;;;15.40;99.90;;;;;;5073783;28;20481;-79
2022/09/08 06:55:26;;;;;;;0.30;0.23;;;15.40;99.90;;;;;;5073586;28;20967;-79
2022/09/08 06:58:06;;;;;;;0.47;0.30;;;15.50;99.90;;;;;;5073881;28;20436;-79
2022/09/08 07:00:42;;;;;;;0.37;0.30;;;15.50;99.90;;;;;;5073864;28;20429;-79
2022/09/08 07:03:19;;;;;;;0.30;0.30;;;15.60;99.90;;;;;;5070263;28;20469;-87
2022/09/08 07:06:05;;;;;;;0.70;0.70;;;15.60;99.90;;;;;;5072137;28;20506;-79
2022/09/08 07:09:08;;;;;;;0.30;0.20;;;15.60;99.90;;;;;;5072055;28;20456;-79
2022/09/08 07:12:00;;;;;;;0.30;0.20;;;15.60;99.90;;;;;;5059257;28;21007;-79
2022/09/08 07:15:11;;;;;;;0.40;0.40;;;15.60;99.90;;;;;;5070328;28;20501;-79
2022/09/08 07:17:44;;;;;;;0.30;0.30;;;15.70;99.90;;;;;;5059775;28;20459;-79
2022/09/08 07:20:12;;;;;;;0.40;0.30;;;15.70;99.90;;;;;;5071493;28;20437;-79
2022/09/08 07:22:48;;;;;;;0.40;0.30;;;15.70;99.90;;;;;;5063349;28;20461;-80
2022/09/08 07:25:21;;;;;;;0.43;0.30;;;15.80;99.90;;;;;;5072956;28;20963;-79
2022/09/08 07:27:53;;;;;;;1.20;0.40;;;15.90;99.90;;;;;;5072030;28;21061;-79
2022/09/08 07:30:20;;;;;;;0.30;0.20;;;16.10;99.90;;;;;;5071321;28;20421;-79
2022/09/08 07:32:51;;;;;;;0.30;0.30;;;16.20;99.90;;;;;;5071139;28;20488;-80
2022/09/08 07:35:34;;;;;;;0.30;0.30;;;16.40;99.90;;;;;;5073163;28;20971;-80
2022/09/08 07:38:09;;;;;;;0.67;0.30;;;16.60;99.90;;;;;;5073336;28;20434;-78
2022/09/08 07:40:41;;;;;;;0.30;0.30;;;16.80;99.90;;;;;;5073061;28;20829;-78
2022/09/08 07:43:11;;;;;;;0.40;0.30;;;17.00;99.90;;;;;;5073065;28;20449;-78
2022/09/08 07:45:48;;;;;;;0.30;0.30;;;17.10;99.90;;;;;;5072965;28;20475;-78
2022/09/08 07:48:26;;;;;;;0.40;0.30;;;17.30;99.90;;;;;;5073300;28;20437;-78
2022/09/08 07:51:03;;;;;;;0.40;0.30;;;17.30;99.90;;;;;;5073281;28;20436;-79
2022/09/08 07:53:45;;;;;;;0.30;0.30;;;17.30;99.90;;;;;;5073276;28;20559;-79
2022/09/08 07:56:15;;;;;;;0.50;0.40;;;17.20;99.90;;;;;;5073202;28;20436;-79
2022/09/08 07:58:51;;;;;;;0.40;0.30;;;17.30;99.90;;;;;;5072937;28;20913;-79
2022/09/08 08:01:30;;;;;;;0.30;0.30;;;17.40;99.90;;;;;;5073166;28;20439;-79
2022/09/08 08:04:09;;;;;;;0.40;0.30;;;17.60;99.90;;;;;;5072868;28;20849;-79
2022/09/08 08:06:39;;;;;;;0.30;0.30;;;17.70;99.90;;;;;;5073244;28;20462;-80
2022/09/08 08:09:19;;;;;;;0.30;0.30;;;17.80;99.90;;;;;;5073405;28;20948;-79
2022/09/08 08:11:54;;;;;;;0.30;0.30;;;17.70;99.90;;;;;;5072998;28;20472;-79
2022/09/08 08:14:27;;;;;;;0.30;0.30;;;17.60;99.90;;;;;;5075390;28;20919;-80
2022/09/08 08:17:15;;;;;;;0.50;0.43;;;17.60;99.90;;;;;;5076690;28;20496;-80
2022/09/08 08:19:53;;;;;;;0.30;0.30;;;17.70;99.90;;;;;;5077039;28;20421;-81
2022/09/08 08:22:33;;;;;;;0.40;0.30;;;18.00;99.90;;;;;;5076567;28;20464;-81
2022/09/08 08:25:05;;;;;;;0.50;0.50;;;18.10;99.90;;;;;;5077359;28;20459;-80
2022/09/08 08:27:42;;;;;;;0.70;0.30;;;18.30;99.90;;;;;;5076463;28;20472;-81
2022/09/08 08:30:18;;;;;;;0.67;0.37;;;18.40;99.90;;;;;;5076757;28;20433;-81
2022/09/08 08:32:53;;;;;;;0.40;0.40;;;18.50;99.90;;;;;;5076217;28;20533;-81
2022/09/08 08:35:27;;;;;;;0.40;0.40;;;18.60;99.90;;;;;;5076838;28;20480;-81
2022/09/08 08:37:54;;;;;;;0.30;0.30;;;18.50;99.90;;;;;;5076616;28;20422;-81
2022/09/08 08:40:53;;;;;;;0.40;0.40;;;18.60;99.90;;;;;;5076149;28;20460;-81
2022/09/08 08:44:05;;;;;;;0.47;0.47;;;18.70;99.90;;;;;;5076413;28;20469;-81
2022/09/08 08:46:50;;;;;;;0.50;0.40;;;19.00;99.90;;;;;;5076357;28;20441;-81
2022/09/08 08:49:54;;;;;;;0.40;0.40;;;19.40;99.90;;;;;;5076420;28;20437;-81
2022/09/08 08:52:37;;;;;;;0.40;0.30;;;19.70;99.90;;;;;;5076264;28;20839;-81
2022/09/08 08:55:26;;;;;;;0.73;0.30;;;20.10;99.90;;;;;;5076245;28;20437;-84
2022/09/08 08:58:05;;;;;;;0.50;0.50;;;20.30;99.90;;;;;;5071379;28;20821;-80
2022/09/08 09:00:40;;;;;;;0.30;0.30;;;20.50;99.90;;;;;;5075003;28;21076;-80
2022/09/08 09:03:39;;;;;;;0.50;0.40;;;20.80;99.90;;;;;;5074749;28;20513;-80
2022/09/08 09:06:47;;;;;;;0.40;0.30;;;20.70;99.90;;;;;;5074985;28;20816;-80
2022/09/08 09:09:50;;;;;;;0.50;0.40;;;20.60;99.90;;;;;;5075873;28;20448;-81
2022/09/08 09:12:36;;;;;;;0.40;0.40;;;20.30;99.90;;;;;;5075495;28;20839;-80
2022/09/08 09:15:25;;;;;;;0.70;0.50;;;20.00;99.90;;;;;;5075922;28;20437;-80
2022/09/08 09:18:39;;;;;;;0.40;0.30;;;19.80;99.90;;;;;;5075516;28;20515;-81
2022/09/08 09:21:11;;;;;;;0.40;0.40;;;19.60;99.90;;;;;;5075600;28;20413;-80
2022/09/08 09:23:52;;;;;;;0.30;0.30;;;19.40;99.90;;;;;;5075734;28;20463;-80
2022/09/08 09:26:20;;;;;;;0.40;0.40;;;19.20;99.90;;;;;;5074527;28;20824;-81
2022/09/08 09:28:56;;;;;;;0.40;0.30;;;19.20;99.90;;;;;;5075654;28;20437;-81
2022/09/08 09:32:01;;;;;;;0.40;0.40;;;19.20;99.90;;;;;;5075353;28;20500;-81
2022/09/08 09:35:03;;;;;;;1.47;1.37;;;19.30;99.90;;;;;;5076074;28;20441;-81
2022/09/08 09:37:51;;;;;;;0.43;0.40;;;19.40;99.90;;;;;;5075495;28;20476;-81
2022/09/08 09:40:30;;;;;;;0.47;0.40;;;19.70;99.90;;;;;;5075424;28;20440;-81
2022/09/08 09:43:12;;;;;;;0.40;0.40;;;19.90;99.90;;;;;;5075793;28;20837;-81
2022/09/08 09:46:00;;;;;;;0.40;0.40;;;20.30;99.90;;;;;;5075326;28;20456;-81
2022/09/08 09:48:53;;;;;;;0.40;0.30;;;20.80;99.90;;;;;;5075110;28;20401;-81
2022/09/08 09:51:38;;;;;;;0.33;0.30;;;20.90;99.90;;;;;;5075262;28;20429;-81
2022/09/08 09:54:33;;;;;;;0.50;0.37;;;21.00;99.90;;;;;;5074842;28;20464;-82
2022/09/08 09:57:36;;;;;;;0.57;0.40;;;21.00;99.90;;;;;;5069963;28;20962;-83
2022/09/08 10:00:17;;;;;;;0.40;0.40;;;20.80;99.90;;;;;;5074781;28;20413;-81
2022/09/08 10:03:06;;;;;;;0.40;0.40;;;20.60;99.90;;;;;;5074888;28;20529;-78
2022/09/08 10:06:05;;;;;;;0.30;0.30;;;20.50;99.90;;;;;;5074957;28;20429;-83
2022/09/08 10:09:02;;;;;;;0.40;0.30;;;20.30;99.90;;;;;;5069497;28;20444;-83
2022/09/08 10:12:11;;;;;;;0.30;0.30;;;20.20;99.90;;;;;;5074830;28;20452;-79
2022/09/08 10:15:21;;;;;;;0.40;0.37;;;20.20;99.90;;;;;;5075546;28;20429;-89
2022/09/08 10:18:25;;;;;;;1.63;0.30;;;20.20;99.90;;;;;;5075643;28;20775;-90
2022/09/08 10:21:14;;;;;;;0.40;0.40;;;20.30;99.90;;;;;;5062242;28;20532;-80
2022/09/08 10:24:05;;;;;;;0.70;0.30;;;20.30;99.90;;;;;;5074332;28;20543;-80
2022/09/08 10:27:00;;;;;;;0.30;0.30;;;20.20;99.90;;;;;;5074036;28;20490;-80
2022/09/08 10:29:48;;;;;;;0.30;0.30;;;20.30;99.90;;;;;;5074590;28;20939;-80
2022/09/08 10:32:50;;;;;;;1.43;0.30;;;20.50;99.90;;;;;;5074390;28;20472;-81
2022/09/08 10:35:38;;;;;;;0.40;0.37;;;20.70;99.90;;;;;;5074267;28;20436;-81
2022/09/08 10:38:47;;;;;;;0.40;0.30;;;20.60;99.90;;;;;;5074232;28;20437;-81
2022/09/08 10:41:51;;;;;;;0.40;0.30;;;20.60;99.90;;;;;;5073918;28;20425;-82
2022/09/08 10:44:50;;;;;;;0.40;0.40;;;20.50;99.90;;;;;;5074213;28;20439;-82
2022/09/08 10:47:45;;;;;;;0.40;0.30;;;20.30;99.90;;;;;;5074169;28;20494;-82
2022/09/08 10:50:19;;;;;;;0.43;0.33;;;20.10;99.90;;;;;;5074068;28;20443;-82
2022/09/08 10:53:19;;;;;;;0.40;0.40;;;20.10;99.90;;;;;;5073894;28;20541;-82
2022/09/08 10:56:01;;;;;;;0.40;0.40;;;20.10;99.90;;;;;;5074011;28;20495;-82
2022/09/08 10:58:57;;;;;;;0.73;0.30;;;20.10;99.90;;;;;;5073918;28;20437;-81
2022/09/08 11:02:03;;;;;;;0.30;0.30;;;20.10;99.90;;;;;;5073525;28;20820;-81
2022/09/08 11:05:11;;;;;;;0.40;0.30;;;20.10;99.90;;;;;;5064947;28;20444;-81
2022/09/08 11:08:01;;;;;;;0.40;0.40;;;20.30;99.90;;;;;;5052144;28;20444;-81
2022/09/08 11:10:45;;;;;;;0.40;0.40;;;20.60;99.90;;;;;;5043913;28;20452;-82
2022/09/08 11:13:26;;;;;;;0.80;0.80;;;20.80;99.90;;;;;;5073594;28;20483;-81
2022/09/08 11:16:19;;;;;;;1.60;0.30;;;21.00;99.90;;;;;;5073673;28;20482;-81
2022/09/08 11:18:58;;;;;;;0.40;0.40;;;20.80;99.90;;;;;;5074083;28;20444;-81
2022/09/08 11:21:28;;;;;;;0.50;0.40;;;20.80;99.90;;;;;;5073645;28;20443;-81
2022/09/08 11:24:08;;;;;;;0.30;0.30;;;20.90;99.90;;;;;;5073651;28;20471;-82
2022/09/08 11:26:49;;;;;;;0.37;0.30;;;20.90;99.90;;;;;;5073371;28;20475;-82
2022/09/08 11:29:17;;;;;;;0.50;0.50;;;20.80;99.90;;;;;;5073594;28;20428;-81
2022/09/08 11:31:57;;;;;;;0.30;0.30;;;20.90;99.90;;;;;;5073435;28;20440;-81
2022/09/08 11:34:48;;;;;;;0.77;0.40;;;21.00;99.90;;;;;;5073375;28;20468;-82
2022/09/08 11:37:47;;;;;;;0.33;0.30;;;21.10;99.90;;;;;;5063991;28;20476;-82
2022/09/08 11:40:36;;;;;;;0.40;0.40;;;21.10;99.90;;;;;;4999310;28;20462;-82
2022/09/08 11:43:35;;;;;;;0.40;0.40;;;21.10;99.90;;;;;;5073294;28;20464;-82
2022/09/08 11:46:24;;;;;;;0.40;0.33;;;20.80;99.90;;;;;;5073400;28;20431;-81
2022/09/08 11:49:15;;;;;;;0.50;0.30;;;20.80;99.90;;;;;;5077397;28;20428;-81
2022/09/08 11:52:06;;;;;;;0.30;0.30;;;20.70;99.90;;;;;;5079985;28;20405;-79
2022/09/08 11:54:56;;;;;;;0.40;0.40;;;20.60;99.90;;;;;;5077349;28;20471;-82
2022/09/08 11:57:32;;;;;;;0.53;0.40;;;20.40;99.90;;;;;;5079971;28;20455;-81
2022/09/08 12:00:29;;;;;;;0.30;0.30;;;20.20;99.90;;;;;;5079605;28;20447;-82
2022/09/08 12:03:34;;;;;;;0.40;0.40;;;19.90;99.90;;;;;;5079515;28;20995;-84
2022/09/08 12:06:23;;;;;;;0.37;0.30;;;19.50;99.90;;;;;;5079808;28;20789;-82
2022/09/08 12:09:12;;;;;;;0.40;0.30;;;19.20;99.90;;;;;;5077137;28;20448;-81
2022/09/08 12:12:10;;;;;;;0.40;0.40;;;19.00;99.90;;;;;;5076972;28;20468;-83
2022/09/08 12:14:49;;;;;;;0.40;0.40;;;18.90;99.90;;;;;;5079720;28;20471;-82
2022/09/08 12:17:28;;;;;;;0.50;0.50;;;18.80;99.90;;;;;;5079562;28;20948;-80
2022/09/08 12:20:16;;;;;;;0.40;0.40;;;18.80;99.90;;;;;;5079731;28;20435;-82
2022/09/08 12:23:04;;;;;;;0.50;0.43;;;18.90;99.90;;;;;;5079556;28;20472;-82
2022/09/08 12:25:52;;;;;;;0.40;0.30;;;19.10;99.90;;;;;;5079682;28;20441;-82
2022/09/08 12:28:30;;;;;;;0.40;0.33;;;19.40;99.90;;;;;;5079831;28;20425;-83
2022/09/08 12:31:23;;;;;;;0.40;0.40;;;19.60;99.90;;;;;;5079606;28;20416;-81
2022/09/08 12:34:13;;;;;;;0.40;0.40;;;19.80;99.90;;;;;;5079184;28;20476;-81
2022/09/08 12:36:43;;;;;;;0.50;0.40;;;19.90;99.90;;;;;;5079717;28;20424;-81
2022/09/08 12:39:39;;;;;;;0.30;0.30;;;20.00;99.90;;;;;;5079544;28;20452;-81
2022/09/08 12:42:24;;;;;;;0.40;0.30;;;20.10;99.90;;;;;;5079714;28;20456;-81
2022/09/08 12:45:06;;;;;;;0.40;0.40;;;20.10;99.90;;;;;;5079519;28;20436;-81
2022/09/08 12:47:40;;;;;;;1.57;0.40;;;20.10;99.90;;;;;;5079479;28;20429;-81
2022/09/08 12:50:21;;;;;;;0.40;0.30;;;20.10;99.90;;;;;;5079232;28;20527;-83
2022/09/08 12:53:05;;;;;;;0.30;0.30;;;20.10;99.90;;;;;;5079215;28;20498;-83
2022/09/08 12:55:40;;;;;;;0.30;0.30;;;20.20;99.90;;;;;;5079734;28;20416;-83
2022/09/08 12:58:13;;;;;;;0.50;0.50;;;20.20;99.90;;;;;;5079126;28;20436;-83
2022/09/08 13:00:51;;;;;;;0.87;0.50;;;20.30;99.90;;;;;;5075774;28;20428;-80
2022/09/08 13:03:29;;;;;;;1.33;0.67;;;20.50;99.90;;;;;;5075789;28;20471;-80
2022/09/08 13:06:24;;;;;;;0.40;0.30;;;20.50;99.90;;;;;;5076182;28;20416;-80
2022/09/08 13:08:58;;;;;;;0.40;0.37;;;20.50;99.90;;;;;;5076070;28;20498;-81
2022/09/08 13:11:46;;;;;;;0.50;0.50;;;20.50;99.90;;;;;;5076021;28;20440;-81
2022/09/08 13:14:14;;;;;;;0.40;0.30;;;20.50;99.90;;;;;;5072490;28;20886;-82
2022/09/08 13:16:51;;;;;;;0.40;0.30;;;20.50;99.90;;;;;;5075912;28;20455;-82
2022/09/08 13:19:27;;;;;;;0.30;0.30;;;20.50;99.90;;;;;;5075567;28;20432;-82
2022/09/08 13:22:23;;;;;;;0.40;0.40;;;20.60;99.90;;;;;;5075454;28;20811;-82
2022/09/08 13:24:58;;;;;;;0.40;0.40;;;20.60;99.90;;;;;;5076100;28;20515;-80
2022/09/08 13:27:36;;;;;;;0.40;0.33;;;20.60;99.90;;;;;;5075327;28;20537;-79
2022/09/08 13:30:15;;;;;;;0.30;0.30;;;20.70;99.90;;;;;;5075908;28;20432;-81
2022/09/08 13:33:10;;;;;;;0.30;0.30;;;20.70;99.90;;;;;;5075269;28;20483;-81
2022/09/08 13:35:57;;;;;;;0.80;0.50;;;20.70;99.90;;;;;;5075318;28;20430;-80
2022/09/08 13:38:49;;;;;;;0.40;0.40;;;20.70;99.90;;;;;;5075537;28;20429;-80
2022/09/08 13:41:26;;;;;;;0.30;0.30;;;20.60;99.90;;;;;;5075485;28;20423;-80
2022/09/08 13:44:17;;;;;;;0.90;0.40;;;20.50;99.90;;;;;;5075024;28;20979;-81